sensor_id;sensor_type;location;lat;lon;timestamp;noise_LAeq;noise_LA_min;noise_LA_max;noise_LA01;noise_LA95
70454;Laerm;57915;47.174;14.680;2023-06-22T00:00:24;47.66;46.32;48.96;;
70454;Laerm;57915;47.174;14.680;2023-06-22T00:01:25;47.70;46.37;49.34;;
70454;Laerm;57915;47.174;14.680;2023-06-22T00:02:27;53.83;46.40;66.28;;
70454;Laerm;57915;47.174;14.680;2023-06-22T00:03:27;47.99;46.34;50.46;;
70454;Laerm;57915;47.174;14.680;2023-06-22T00:04:28;47.73;46.43;49.11;;
70454;Laerm;57915;47.174;14.680;2023-06-22T00:05:30;47.88;46.62;49.38;;
70454;Laerm;57915;47.174;14.680;2023-06-22T00:06:32;47.88;46.62;49.58;;
70454;Laerm;57915;47.174;14.680;2023-06-22T00:07:32;47.58;46.38;49.25;;
70454;Laerm;57915;47.174;14.680;2023-06-22T00:08:34;47.43;46.24;48.63;;
70454;Laerm;57915;47.174;14.680;2023-06-22T00:09:34;47.63;46.53;49.01;;
70454;Laerm;57915;47.174;14.680;2023-06-22T00:10:35;47.96;46.78;49.31;;
70454;Laerm;57915;47.174;14.680;2023-06-22T00:11:36;47.61;46.20;49.29;;
70454;Laerm;57915;47.174;14.680;2023-06-22T00:12:37;47.68;46.51;48.93;;
70454;Laerm;57915;47.174;14.680;2023-06-22T00:13:38;47.17;46.11;49.09;;
70454;Laerm;57915;47.174;14.680;2023-06-22T00:14:39;47.10;46.05;48.39;;
70454;Laerm;57915;47.174;14.680;2023-06-22T00:15:40;47.23;46.01;48.63;;
70454;Laerm;57915;47.174;14.680;2023-06-22T00:16:42;46.95;45.99;48.27;;
70454;Laerm;57915;47.174;14.680;2023-06-22T00:17:42;47.10;46.17;48.47;;
70454;Laerm;57915;47.174;14.680;2023-06-22T00:18:44;47.07;46.03;48.32;;
70454;Laerm;57915;47.174;14.680;2023-06-22T00:19:47;48.75;46.21;52.28;;
70454;Laerm;57915;47.174;14.680;2023-06-22T00:20:55;47.52;46.25;49.33;;
70454;Laerm;57915;47.174;14.680;2023-06-22T00:21:57;47.34;46.14;48.72;;
70454;Laerm;57915;47.174;14.680;2023-06-22T00:23:00;46.99;46.06;48.39;;
70454;Laerm;57915;47.174;14.680;2023-06-22T00:24:00;47.15;46.17;48.00;;
70454;Laerm;57915;47.174;14.680;2023-06-22T00:25:02;47.27;46.17;48.81;;
70454;Laerm;57915;47.174;14.680;2023-06-22T00:26:03;48.49;46.81;63.24;;
70454;Laerm;57915;47.174;14.680;2023-06-22T00:27:04;49.31;47.03;52.78;;
70454;Laerm;57915;47.174;14.680;2023-06-22T00:28:06;47.65;45.69;50.72;;
70454;Laerm;57915;47.174;14.680;2023-06-22T00:29:07;52.79;46.28;65.70;;
70454;Laerm;57915;47.174;14.680;2023-06-22T00:30:08;47.81;46.44;49.33;;
70454;Laerm;57915;47.174;14.680;2023-06-22T00:31:10;47.91;46.19;49.68;;
70454;Laerm;57915;47.174;14.680;2023-06-22T00:32:10;48.29;46.04;51.90;;
70454;Laerm;57915;47.174;14.680;2023-06-22T00:33:11;48.30;46.38;52.10;;
70454;Laerm;57915;47.174;14.680;2023-06-22T00:34:12;47.50;46.31;48.69;;
70454;Laerm;57915;47.174;14.680;2023-06-22T00:35:13;47.75;46.73;49.30;;
70454;Laerm;57915;47.174;14.680;2023-06-22T00:36:15;48.46;46.94;51.24;;
70454;Laerm;57915;47.174;14.680;2023-06-22T00:37:17;48.80;46.71;57.60;;
70454;Laerm;57915;47.174;14.680;2023-06-22T00:38:18;53.57;46.81;64.17;;
70454;Laerm;57915;47.174;14.680;2023-06-22T00:39:19;48.86;47.03;54.85;;
70454;Laerm;57915;47.174;14.680;2023-06-22T00:40:20;54.72;46.88;66.10;;
70454;Laerm;57915;47.174;14.680;2023-06-22T00:41:21;49.38;47.01;58.41;;
70454;Laerm;57915;47.174;14.680;2023-06-22T00:42:22;47.78;46.37;50.52;;
70454;Laerm;57915;47.174;14.680;2023-06-22T00:43:23;47.55;46.39;48.94;;
70454;Laerm;57915;47.174;14.680;2023-06-22T00:44:25;47.40;46.36;48.71;;
70454;Laerm;57915;47.174;14.680;2023-06-22T00:45:25;47.68;46.61;49.15;;
70454;Laerm;57915;47.174;14.680;2023-06-22T00:46:27;47.59;46.34;51.64;;
70454;Laerm;57915;47.174;14.680;2023-06-22T00:47:27;48.47;46.50;59.13;;
70454;Laerm;57915;47.174;14.680;2023-06-22T00:48:29;50.61;46.83;64.88;;
70454;Laerm;57915;47.174;14.680;2023-06-22T00:49:30;55.11;46.26;70.19;;
70454;Laerm;57915;47.174;14.680;2023-06-22T00:50:32;47.37;46.31;48.60;;
70454;Laerm;57915;47.174;14.680;2023-06-22T00:51:35;47.52;46.49;48.74;;
70454;Laerm;57915;47.174;14.680;2023-06-22T00:52:38;47.24;46.30;48.57;;
70454;Laerm;57915;47.174;14.680;2023-06-22T00:53:43;47.46;46.39;48.95;;
70454;Laerm;57915;47.174;14.680;2023-06-22T00:54:44;47.80;46.67;48.78;;
70454;Laerm;57915;47.174;14.680;2023-06-22T00:55:45;47.72;46.58;48.91;;
70454;Laerm;57915;47.174;14.680;2023-06-22T00:56:47;47.65;46.65;48.92;;
70454;Laerm;57915;47.174;14.680;2023-06-22T00:57:48;47.78;46.65;49.02;;
70454;Laerm;57915;47.174;14.680;2023-06-22T00:58:50;47.46;46.45;48.56;;
70454;Laerm;57915;47.174;14.680;2023-06-22T00:59:53;47.60;46.57;48.79;;
70454;Laerm;57915;47.174;14.680;2023-06-22T01:00:54;47.71;46.61;49.14;;
70454;Laerm;57915;47.174;14.680;2023-06-22T01:01:56;47.83;46.50;49.40;;
70454;Laerm;57915;47.174;14.680;2023-06-22T01:02:57;48.22;46.97;49.32;;
70454;Laerm;57915;47.174;14.680;2023-06-22T01:03:58;48.65;46.61;58.89;;
70454;Laerm;57915;47.174;14.680;2023-06-22T01:05:00;53.88;46.52;64.41;;
70454;Laerm;57915;47.174;14.680;2023-06-22T01:06:02;47.75;46.45;52.01;;
70454;Laerm;57915;47.174;14.680;2023-06-22T01:07:13;47.89;46.70;50.77;;
70454;Laerm;57915;47.174;14.680;2023-06-22T01:08:22;47.90;46.85;49.06;;
70454;Laerm;57915;47.174;14.680;2023-06-22T01:09:26;47.69;46.57;48.81;;
70454;Laerm;57915;47.174;14.680;2023-06-22T01:10:31;47.90;46.67;49.19;;
70454;Laerm;57915;47.174;14.680;2023-06-22T01:11:36;49.22;47.10;52.63;;
70454;Laerm;57915;47.174;14.680;2023-06-22T01:12:38;48.31;46.85;49.78;;
70454;Laerm;57915;47.174;14.680;2023-06-22T01:13:41;47.93;46.75;49.33;;
70454;Laerm;57915;47.174;14.680;2023-06-22T01:14:47;47.66;46.76;48.96;;
70454;Laerm;57915;47.174;14.680;2023-06-22T01:15:53;47.60;46.54;48.63;;
70454;Laerm;57915;47.174;14.680;2023-06-22T01:16:56;47.45;46.57;48.49;;
70454;Laerm;57915;47.174;14.680;2023-06-22T01:17:58;47.75;46.65;48.81;;
70454;Laerm;57915;47.174;14.680;2023-06-22T01:19:00;47.83;46.79;49.33;;
70454;Laerm;57915;47.174;14.680;2023-06-22T01:20:02;55.77;47.10;67.92;;
70454;Laerm;57915;47.174;14.680;2023-06-22T01:21:05;47.66;46.64;48.95;;
70454;Laerm;57915;47.174;14.680;2023-06-22T01:22:10;47.67;46.69;48.79;;
70454;Laerm;57915;47.174;14.680;2023-06-22T01:23:18;47.63;46.67;48.78;;
70454;Laerm;57915;47.174;14.680;2023-06-22T01:24:22;52.64;46.71;65.27;;
70454;Laerm;57915;47.174;14.680;2023-06-22T01:25:26;48.00;47.04;49.11;;
70454;Laerm;57915;47.174;14.680;2023-06-22T01:26:33;47.82;46.79;48.93;;
70454;Laerm;57915;47.174;14.680;2023-06-22T01:27:39;47.75;46.67;48.96;;
70454;Laerm;57915;47.174;14.680;2023-06-22T01:28:44;47.81;46.76;49.60;;
70454;Laerm;57915;47.174;14.680;2023-06-22T01:29:46;48.15;46.94;50.67;;
70454;Laerm;57915;47.174;14.680;2023-06-22T01:30:47;48.43;47.07;50.24;;
70454;Laerm;57915;47.174;14.680;2023-06-22T01:31:50;48.89;47.39;52.68;;
70454;Laerm;57915;47.174;14.680;2023-06-22T01:32:52;49.08;47.73;51.76;;
70454;Laerm;57915;47.174;14.680;2023-06-22T01:33:54;49.08;47.32;51.29;;
70454;Laerm;57915;47.174;14.680;2023-06-22T01:34:55;49.45;47.32;51.52;;
70454;Laerm;57915;47.174;14.680;2023-06-22T01:35:57;49.17;46.99;57.82;;
70454;Laerm;57915;47.174;14.680;2023-06-22T01:36:59;54.02;47.13;65.99;;
70454;Laerm;57915;47.174;14.680;2023-06-22T01:38:01;47.91;46.87;49.42;;
70454;Laerm;57915;47.174;14.680;2023-06-22T01:39:02;48.63;47.15;50.58;;
70454;Laerm;57915;47.174;14.680;2023-06-22T01:40:04;48.54;46.77;50.13;;
70454;Laerm;57915;47.174;14.680;2023-06-22T01:41:06;48.59;47.22;57.84;;
70454;Laerm;57915;47.174;14.680;2023-06-22T01:42:07;48.05;46.76;49.79;;
70454;Laerm;57915;47.174;14.680;2023-06-22T01:43:08;48.31;47.08;49.60;;
70454;Laerm;57915;47.174;14.680;2023-06-22T01:44:10;48.11;47.02;49.41;;
70454;Laerm;57915;47.174;14.680;2023-06-22T01:45:12;48.09;47.01;49.89;;
70454;Laerm;57915;47.174;14.680;2023-06-22T01:46:13;54.98;47.41;64.37;;
70454;Laerm;57915;47.174;14.680;2023-06-22T01:47:14;48.52;46.85;53.85;;
70454;Laerm;57915;47.174;14.680;2023-06-22T01:48:16;54.07;46.92;65.25;;
70454;Laerm;57915;47.174;14.680;2023-06-22T01:49:17;55.47;47.07;69.22;;
70454;Laerm;57915;47.174;14.680;2023-06-22T01:50:19;48.06;46.90;50.78;;
70454;Laerm;57915;47.174;14.680;2023-06-22T01:51:19;48.31;46.85;52.66;;
70454;Laerm;57915;47.174;14.680;2023-06-22T01:52:21;48.27;47.13;53.26;;
70454;Laerm;57915;47.174;14.680;2023-06-22T01:53:22;48.14;46.68;53.97;;
70454;Laerm;57915;47.174;14.680;2023-06-22T01:54:23;47.94;46.80;52.51;;
70454;Laerm;57915;47.174;14.680;2023-06-22T01:55:24;48.02;46.84;54.83;;
70454;Laerm;57915;47.174;14.680;2023-06-22T01:56:25;48.42;46.96;55.34;;
70454;Laerm;57915;47.174;14.680;2023-06-22T01:57:26;48.80;47.04;54.15;;
70454;Laerm;57915;47.174;14.680;2023-06-22T01:58:28;48.88;47.01;59.21;;
70454;Laerm;57915;47.174;14.680;2023-06-22T01:59:32;49.70;47.32;58.89;;
70454;Laerm;57915;47.174;14.680;2023-06-22T02:00:36;49.54;47.04;60.59;;
70454;Laerm;57915;47.174;14.680;2023-06-22T02:01:40;54.79;47.16;64.99;;
70454;Laerm;57915;47.174;14.680;2023-06-22T02:02:43;51.33;47.62;58.84;;
70454;Laerm;57915;47.174;14.680;2023-06-22T02:03:51;53.55;48.37;62.54;;
70454;Laerm;57915;47.174;14.680;2023-06-22T02:04:55;52.70;47.40;61.37;;
70454;Laerm;57915;47.174;14.680;2023-06-22T02:05:58;60.20;47.55;72.47;;
70454;Laerm;57915;47.174;14.680;2023-06-22T02:07:03;54.88;47.83;65.15;;
70454;Laerm;57915;47.174;14.680;2023-06-22T02:08:07;53.12;47.49;66.29;;
70454;Laerm;57915;47.174;14.680;2023-06-22T02:09:10;55.11;47.62;65.82;;
70454;Laerm;57915;47.174;14.680;2023-06-22T02:10:12;59.06;47.79;69.12;;
70454;Laerm;57915;47.174;14.680;2023-06-22T02:11:15;56.55;47.18;68.35;;
70454;Laerm;57915;47.174;14.680;2023-06-22T02:12:18;53.11;47.45;67.31;;
70454;Laerm;57915;47.174;14.680;2023-06-22T02:13:23;53.76;47.80;68.24;;
70454;Laerm;57915;47.174;14.680;2023-06-22T02:14:25;53.83;47.50;68.41;;
70454;Laerm;57915;47.174;14.680;2023-06-22T02:15:27;52.43;47.40;64.98;;
70454;Laerm;57915;47.174;14.680;2023-06-22T02:16:30;51.91;47.57;60.69;;
70454;Laerm;57915;47.174;14.680;2023-06-22T02:17:31;58.52;47.90;72.98;;
70454;Laerm;57915;47.174;14.680;2023-06-22T02:18:33;53.91;47.94;68.23;;
70454;Laerm;57915;47.174;14.680;2023-06-22T02:19:36;54.49;47.91;67.86;;
70454;Laerm;57915;47.174;14.680;2023-06-22T02:20:37;61.49;48.54;72.55;;
70454;Laerm;57915;47.174;14.680;2023-06-22T02:21:38;56.07;47.63;67.27;;
70454;Laerm;57915;47.174;14.680;2023-06-22T02:22:39;51.69;48.03;62.17;;
70454;Laerm;57915;47.174;14.680;2023-06-22T02:23:40;57.79;48.15;68.57;;
70454;Laerm;57915;47.174;14.680;2023-06-22T02:24:41;54.86;47.79;67.96;;
70454;Laerm;57915;47.174;14.680;2023-06-22T02:25:41;57.52;48.17;69.45;;
70454;Laerm;57915;47.174;14.680;2023-06-22T02:26:44;53.30;48.83;61.42;;
70454;Laerm;57915;47.174;14.680;2023-06-22T02:27:45;51.63;47.64;61.38;;
70454;Laerm;57915;47.174;14.680;2023-06-22T02:28:47;56.54;48.09;67.81;;
70454;Laerm;57915;47.174;14.680;2023-06-22T02:29:47;55.13;48.09;67.98;;
70454;Laerm;57915;47.174;14.680;2023-06-22T02:30:50;57.12;47.96;67.94;;
70454;Laerm;57915;47.174;14.680;2023-06-22T02:31:51;56.58;47.93;68.69;;
70454;Laerm;57915;47.174;14.680;2023-06-22T02:32:52;59.27;48.12;71.50;;
70454;Laerm;57915;47.174;14.680;2023-06-22T02:33:58;56.30;48.05;64.52;;
70454;Laerm;57915;47.174;14.680;2023-06-22T02:35:00;56.41;48.33;67.01;;
70454;Laerm;57915;47.174;14.680;2023-06-22T02:36:04;56.28;48.17;64.58;;
70454;Laerm;57915;47.174;14.680;2023-06-22T02:37:05;56.93;48.53;65.83;;
70454;Laerm;57915;47.174;14.680;2023-06-22T02:38:06;58.03;48.62;65.62;;
70454;Laerm;57915;47.174;14.680;2023-06-22T02:39:08;59.05;48.54;67.29;;
70454;Laerm;57915;47.174;14.680;2023-06-22T02:40:10;56.70;48.78;65.29;;
70454;Laerm;57915;47.174;14.680;2023-06-22T02:41:11;60.95;48.50;73.09;;
70454;Laerm;57915;47.174;14.680;2023-06-22T02:42:13;55.87;48.05;65.00;;
70454;Laerm;57915;47.174;14.680;2023-06-22T02:43:14;60.77;48.38;70.89;;
70454;Laerm;57915;47.174;14.680;2023-06-22T02:44:15;59.47;48.25;69.31;;
70454;Laerm;57915;47.174;14.680;2023-06-22T02:45:16;56.78;48.05;68.18;;
70454;Laerm;57915;47.174;14.680;2023-06-22T02:46:19;60.02;48.13;69.31;;
70454;Laerm;57915;47.174;14.680;2023-06-22T02:47:19;56.58;48.10;68.01;;
70454;Laerm;57915;47.174;14.680;2023-06-22T02:48:21;55.14;47.52;67.91;;
70454;Laerm;57915;47.174;14.680;2023-06-22T02:49:21;59.84;47.78;70.91;;
70454;Laerm;57915;47.174;14.680;2023-06-22T02:50:23;58.12;47.96;68.11;;
70454;Laerm;57915;47.174;14.680;2023-06-22T02:51:24;57.77;48.59;69.87;;
70454;Laerm;57915;47.174;14.680;2023-06-22T02:52:25;60.88;48.19;70.18;;
70454;Laerm;57915;47.174;14.680;2023-06-22T02:53:26;56.56;48.33;66.18;;
70454;Laerm;57915;47.174;14.680;2023-06-22T02:54:27;55.90;48.17;66.28;;
70454;Laerm;57915;47.174;14.680;2023-06-22T02:55:27;56.50;47.90;67.76;;
70454;Laerm;57915;47.174;14.680;2023-06-22T02:56:29;58.99;48.41;68.98;;
70454;Laerm;57915;47.174;14.680;2023-06-22T02:57:30;59.91;48.01;72.56;;
70454;Laerm;57915;47.174;14.680;2023-06-22T02:58:32;59.20;47.90;68.77;;
70454;Laerm;57915;47.174;14.680;2023-06-22T02:59:38;56.74;48.06;68.28;;
70454;Laerm;57915;47.174;14.680;2023-06-22T03:00:40;61.00;48.98;72.35;;
70454;Laerm;57915;47.174;14.680;2023-06-22T03:01:42;56.42;47.98;69.54;;
70454;Laerm;57915;47.174;14.680;2023-06-22T03:02:44;53.51;47.96;65.85;;
70454;Laerm;57915;47.174;14.680;2023-06-22T03:03:45;54.32;48.09;69.94;;
70454;Laerm;57915;47.174;14.680;2023-06-22T03:04:46;56.69;48.09;66.59;;
70454;Laerm;57915;47.174;14.680;2023-06-22T03:05:49;57.66;47.76;68.78;;
70454;Laerm;57915;47.174;14.680;2023-06-22T03:06:53;50.54;47.93;58.34;;
70454;Laerm;57915;47.174;14.680;2023-06-22T03:07:53;54.01;47.97;63.17;;
70454;Laerm;57915;47.174;14.680;2023-06-22T03:08:57;53.29;47.65;67.23;;
70454;Laerm;57915;47.174;14.680;2023-06-22T03:09:57;56.99;48.43;70.47;;
70454;Laerm;57915;47.174;14.680;2023-06-22T03:10:59;55.89;48.07;68.10;;
70454;Laerm;57915;47.174;14.680;2023-06-22T03:11:59;50.47;47.95;57.56;;
70454;Laerm;57915;47.174;14.680;2023-06-22T03:13:02;60.58;47.89;69.75;;
70454;Laerm;57915;47.174;14.680;2023-06-22T03:14:02;58.26;48.19;69.00;;
70454;Laerm;57915;47.174;14.680;2023-06-22T03:15:05;56.32;48.19;65.06;;
70454;Laerm;57915;47.174;14.680;2023-06-22T03:16:05;55.57;48.03;68.18;;
70454;Laerm;57915;47.174;14.680;2023-06-22T03:17:08;60.60;50.09;72.26;;
70454;Laerm;57915;47.174;14.680;2023-06-22T03:18:08;55.94;48.01;66.49;;
70454;Laerm;57915;47.174;14.680;2023-06-22T03:19:10;55.99;47.93;67.73;;
70454;Laerm;57915;47.174;14.680;2023-06-22T03:20:11;58.21;49.19;69.51;;
70454;Laerm;57915;47.174;14.680;2023-06-22T03:21:12;56.82;48.38;68.92;;
70454;Laerm;57915;47.174;14.680;2023-06-22T03:22:13;59.22;48.25;70.91;;
70454;Laerm;57915;47.174;14.680;2023-06-22T03:23:15;61.02;49.18;70.94;;
70454;Laerm;57915;47.174;14.680;2023-06-22T03:24:15;52.04;48.52;59.61;;
70454;Laerm;57915;47.174;14.680;2023-06-22T03:25:17;59.58;48.53;69.63;;
70454;Laerm;57915;47.174;14.680;2023-06-22T03:26:17;53.86;48.00;64.30;;
70454;Laerm;57915;47.174;14.680;2023-06-22T03:27:19;50.13;47.97;57.84;;
70454;Laerm;57915;47.174;14.680;2023-06-22T03:28:19;59.67;48.33;70.51;;
70454;Laerm;57915;47.174;14.680;2023-06-22T03:29:21;58.53;48.23;70.63;;
70454;Laerm;57915;47.174;14.680;2023-06-22T03:30:21;57.21;47.94;67.40;;
70454;Laerm;57915;47.174;14.680;2023-06-22T03:31:23;54.13;47.65;65.92;;
70454;Laerm;57915;47.174;14.680;2023-06-22T03:32:25;58.28;48.22;67.66;;
70454;Laerm;57915;47.174;14.680;2023-06-22T03:33:28;58.67;48.80;69.52;;
70454;Laerm;57915;47.174;14.680;2023-06-22T03:34:28;62.52;50.85;72.36;;
70454;Laerm;57915;47.174;14.680;2023-06-22T03:35:34;59.98;49.65;70.46;;
70454;Laerm;57915;47.174;14.680;2023-06-22T03:36:34;60.02;48.42;69.18;;
70454;Laerm;57915;47.174;14.680;2023-06-22T03:37:36;60.61;48.73;69.29;;
70454;Laerm;57915;47.174;14.680;2023-06-22T03:38:36;52.09;48.43;65.56;;
70454;Laerm;57915;47.174;14.680;2023-06-22T03:39:38;60.48;49.37;68.55;;
70454;Laerm;57915;47.174;14.680;2023-06-22T03:40:38;56.45;48.19;69.89;;
70454;Laerm;57915;47.174;14.680;2023-06-22T03:41:40;60.03;48.40;71.81;;
70454;Laerm;57915;47.174;14.680;2023-06-22T03:42:40;59.32;48.07;71.52;;
70454;Laerm;57915;47.174;14.680;2023-06-22T03:43:42;60.38;48.18;69.89;;
70454;Laerm;57915;47.174;14.680;2023-06-22T03:44:42;53.11;47.72;66.66;;
70454;Laerm;57915;47.174;14.680;2023-06-22T03:45:44;58.01;47.96;68.14;;
70454;Laerm;57915;47.174;14.680;2023-06-22T03:46:45;63.18;47.94;71.78;;
70454;Laerm;57915;47.174;14.680;2023-06-22T03:47:48;60.87;47.81;73.65;;
70454;Laerm;57915;47.174;14.680;2023-06-22T03:48:48;57.46;47.98;71.53;;
70454;Laerm;57915;47.174;14.680;2023-06-22T03:49:50;60.71;48.14;70.63;;
70454;Laerm;57915;47.174;14.680;2023-06-22T03:50:55;56.79;48.33;69.82;;
70454;Laerm;57915;47.174;14.680;2023-06-22T03:51:56;59.33;48.93;69.91;;
70454;Laerm;57915;47.174;14.680;2023-06-22T03:52:58;60.25;47.53;72.60;;
70454;Laerm;57915;47.174;14.680;2023-06-22T03:53:58;56.94;47.70;68.79;;
70454;Laerm;57915;47.174;14.680;2023-06-22T03:54:59;58.37;47.81;67.24;;
70454;Laerm;57915;47.174;14.680;2023-06-22T03:56:00;54.46;47.52;66.22;;
70454;Laerm;57915;47.174;14.680;2023-06-22T03:57:01;58.82;47.66;67.13;;
70454;Laerm;57915;47.174;14.680;2023-06-22T03:58:02;55.13;47.27;67.01;;
70454;Laerm;57915;47.174;14.680;2023-06-22T03:59:05;50.31;46.83;57.04;;
70454;Laerm;57915;47.174;14.680;2023-06-22T04:00:06;60.51;47.98;70.96;;
70454;Laerm;57915;47.174;14.680;2023-06-22T04:01:10;50.35;47.21;57.65;;
70454;Laerm;57915;47.174;14.680;2023-06-22T04:02:11;49.28;47.23;54.78;;
70454;Laerm;57915;47.174;14.680;2023-06-22T04:03:14;48.97;47.28;53.93;;
70454;Laerm;57915;47.174;14.680;2023-06-22T04:04:14;55.50;47.21;67.11;;
70454;Laerm;57915;47.174;14.680;2023-06-22T04:05:16;59.32;47.13;69.83;;
70454;Laerm;57915;47.174;14.680;2023-06-22T04:06:17;55.79;47.62;66.94;;
70454;Laerm;57915;47.174;14.680;2023-06-22T04:07:19;57.97;47.71;71.91;;
70454;Laerm;57915;47.174;14.680;2023-06-22T04:08:19;50.32;47.51;57.83;;
70454;Laerm;57915;47.174;14.680;2023-06-22T04:09:21;49.11;47.09;54.81;;
70454;Laerm;57915;47.174;14.680;2023-06-22T04:10:21;49.08;46.96;54.92;;
70454;Laerm;57915;47.174;14.680;2023-06-22T04:11:23;61.40;47.43;73.99;;
70454;Laerm;57915;47.174;14.680;2023-06-22T04:12:23;52.83;47.15;70.25;;
70454;Laerm;57915;47.174;14.680;2023-06-22T04:13:25;61.59;46.88;70.67;;
70454;Laerm;57915;47.174;14.680;2023-06-22T04:14:25;59.88;47.64;69.34;;
70454;Laerm;57915;47.174;14.680;2023-06-22T04:15:26;56.19;47.63;73.30;;
70454;Laerm;57915;47.174;14.680;2023-06-22T04:16:27;60.93;47.90;70.35;;
70454;Laerm;57915;47.174;14.680;2023-06-22T04:17:28;57.74;46.86;69.47;;
70454;Laerm;57915;47.174;14.680;2023-06-22T04:18:30;55.43;46.47;65.06;;
70454;Laerm;57915;47.174;14.680;2023-06-22T04:19:32;58.99;49.54;68.01;;
70454;Laerm;57915;47.174;14.680;2023-06-22T04:20:32;59.42;47.67;72.40;;
70454;Laerm;57915;47.174;14.680;2023-06-22T04:21:33;49.46;46.56;56.95;;
70454;Laerm;57915;47.174;14.680;2023-06-22T04:22:34;60.08;47.64;70.76;;
70454;Laerm;57915;47.174;14.680;2023-06-22T04:23:35;58.87;47.63;68.80;;
70454;Laerm;57915;47.174;14.680;2023-06-22T04:24:37;54.45;47.42;66.18;;
70454;Laerm;57915;47.174;14.680;2023-06-22T04:25:37;60.49;48.09;71.74;;
70454;Laerm;57915;47.174;14.680;2023-06-22T04:26:39;53.92;46.84;64.37;;
70454;Laerm;57915;47.174;14.680;2023-06-22T04:27:41;58.53;46.68;71.20;;
70454;Laerm;57915;47.174;14.680;2023-06-22T04:28:42;55.29;46.65;66.99;;
70454;Laerm;57915;47.174;14.680;2023-06-22T04:29:43;58.67;47.37;68.03;;
70454;Laerm;57915;47.174;14.680;2023-06-22T04:30:48;58.26;46.78;69.45;;
70454;Laerm;57915;47.174;14.680;2023-06-22T04:31:50;59.94;46.94;68.04;;
70454;Laerm;57915;47.174;14.680;2023-06-22T04:32:53;51.61;46.01;62.59;;
70454;Laerm;57915;47.174;14.680;2023-06-22T04:33:59;61.68;48.13;72.13;;
70454;Laerm;57915;47.174;14.680;2023-06-22T04:35:05;58.23;45.96;67.01;;
70454;Laerm;57915;47.174;14.680;2023-06-22T04:36:06;59.48;45.72;69.27;;
70454;Laerm;57915;47.174;14.680;2023-06-22T04:37:08;65.10;46.27;77.25;;
70454;Laerm;57915;47.174;14.680;2023-06-22T04:38:08;54.37;46.32;64.61;;
70454;Laerm;57915;47.174;14.680;2023-06-22T04:39:13;56.38;46.10;70.75;;
70454;Laerm;57915;47.174;14.680;2023-06-22T04:40:13;60.00;49.58;67.75;;
70454;Laerm;57915;47.174;14.680;2023-06-22T04:41:15;54.16;45.54;65.46;;
70454;Laerm;57915;47.174;14.680;2023-06-22T04:42:24;51.61;44.98;59.63;;
70454;Laerm;57915;47.174;14.680;2023-06-22T04:43:26;55.37;43.88;69.31;;
70454;Laerm;57915;47.174;14.680;2023-06-22T04:44:30;59.01;46.64;70.75;;
70454;Laerm;57915;47.174;14.680;2023-06-22T04:45:30;63.36;44.85;75.02;;
70454;Laerm;57915;47.174;14.680;2023-06-22T04:46:32;55.18;45.65;64.20;;
70454;Laerm;57915;47.174;14.680;2023-06-22T04:47:34;56.66;44.51;66.97;;
70454;Laerm;57915;47.174;14.680;2023-06-22T04:48:39;58.63;46.13;69.87;;
70454;Laerm;57915;47.174;14.680;2023-06-22T04:49:41;56.92;44.42;68.11;;
70454;Laerm;57915;47.174;14.680;2023-06-22T04:50:43;56.78;44.22;67.92;;
70454;Laerm;57915;47.174;14.680;2023-06-22T04:51:44;58.86;44.95;69.40;;
70454;Laerm;57915;47.174;14.680;2023-06-22T04:52:46;60.47;45.97;70.78;;
70454;Laerm;57915;47.174;14.680;2023-06-22T04:53:46;58.31;44.80;66.65;;
70454;Laerm;57915;47.174;14.680;2023-06-22T04:54:47;65.18;54.50;72.33;;
70454;Laerm;57915;47.174;14.680;2023-06-22T04:55:48;59.69;46.01;68.46;;
70454;Laerm;57915;47.174;14.680;2023-06-22T04:56:53;55.73;44.39;66.01;;
70454;Laerm;57915;47.174;14.680;2023-06-22T04:57:56;55.19;44.39;65.24;;
70454;Laerm;57915;47.174;14.680;2023-06-22T04:59:04;58.36;43.57;69.33;;
70454;Laerm;57915;47.174;14.680;2023-06-22T05:00:05;57.90;45.54;70.80;;
70454;Laerm;57915;47.174;14.680;2023-06-22T05:01:12;59.97;46.59;69.40;;
70454;Laerm;57915;47.174;14.680;2023-06-22T05:02:13;57.60;47.25;67.93;;
70454;Laerm;57915;47.174;14.680;2023-06-22T05:03:14;62.98;53.29;69.94;;
70454;Laerm;57915;47.174;14.680;2023-06-22T05:04:18;60.15;46.94;68.45;;
70454;Laerm;57915;47.174;14.680;2023-06-22T05:05:20;59.87;45.40;79.43;;
70454;Laerm;57915;47.174;14.680;2023-06-22T05:06:21;56.06;45.67;72.58;;
70454;Laerm;57915;47.174;14.680;2023-06-22T05:07:24;58.13;46.43;75.50;;
70454;Laerm;57915;47.174;14.680;2023-06-22T05:08:26;65.28;50.75;83.24;;
70454;Laerm;57915;47.174;14.680;2023-06-22T05:09:28;58.75;49.05;73.78;;
70454;Laerm;57915;47.174;14.680;2023-06-22T05:10:29;57.40;46.51;68.06;;
70454;Laerm;57915;47.174;14.680;2023-06-22T05:11:31;61.10;48.86;73.61;;
70454;Laerm;57915;47.174;14.680;2023-06-22T05:12:31;61.27;51.03;72.80;;
70454;Laerm;57915;47.174;14.680;2023-06-22T05:13:33;60.24;51.14;68.04;;
70454;Laerm;57915;47.174;14.680;2023-06-22T05:14:33;61.75;53.38;66.99;;
70454;Laerm;57915;47.174;14.680;2023-06-22T05:15:34;62.26;53.28;69.46;;
70454;Laerm;57915;47.174;14.680;2023-06-22T05:16:40;58.77;51.89;66.78;;
70454;Laerm;57915;47.174;14.680;2023-06-22T05:17:42;60.56;51.93;69.76;;
70454;Laerm;57915;47.174;14.680;2023-06-22T05:18:42;63.49;55.76;81.44;;
70454;Laerm;57915;47.174;14.680;2023-06-22T05:19:44;60.57;53.67;70.99;;
70454;Laerm;57915;47.174;14.680;2023-06-22T05:20:49;60.55;49.37;67.41;;
70454;Laerm;57915;47.174;14.680;2023-06-22T05:21:51;61.87;51.81;70.96;;
70454;Laerm;57915;47.174;14.680;2023-06-22T05:22:52;62.87;53.73;82.62;;
70454;Laerm;57915;47.174;14.680;2023-06-22T05:23:53;62.00;52.33;69.65;;
70454;Laerm;57915;47.174;14.680;2023-06-22T05:24:54;61.42;52.53;69.94;;
70454;Laerm;57915;47.174;14.680;2023-06-22T05:25:55;62.34;52.13;70.42;;
70454;Laerm;57915;47.174;14.680;2023-06-22T05:26:57;59.58;44.53;69.56;;
70454;Laerm;57915;47.174;14.680;2023-06-22T05:27:59;77.87;53.89;91.15;;
70454;Laerm;57915;47.174;14.680;2023-06-22T05:28:59;71.37;63.97;86.09;;
70454;Laerm;57915;47.174;14.680;2023-06-22T05:30:02;77.41;64.82;91.94;;
70454;Laerm;57915;47.174;14.680;2023-06-22T05:31:03;77.35;64.78;91.88;;
70454;Laerm;57915;47.174;14.680;2023-06-22T05:32:04;78.37;64.86;92.56;;
70454;Laerm;57915;47.174;14.680;2023-06-22T05:33:06;75.70;54.69;93.67;;
70454;Laerm;57915;47.174;14.680;2023-06-22T05:34:06;60.25;52.47;74.95;;
70454;Laerm;57915;47.174;14.680;2023-06-22T05:35:08;63.63;54.74;74.08;;
70454;Laerm;57915;47.174;14.680;2023-06-22T05:36:10;63.74;53.85;72.52;;
70454;Laerm;57915;47.174;14.680;2023-06-22T05:37:12;63.06;54.54;70.62;;
70454;Laerm;57915;47.174;14.680;2023-06-22T05:38:13;60.99;51.25;69.99;;
70454;Laerm;57915;47.174;14.680;2023-06-22T05:39:15;61.19;48.96;70.91;;
70454;Laerm;57915;47.174;14.680;2023-06-22T05:40:15;64.39;47.27;74.61;;
70454;Laerm;57915;47.174;14.680;2023-06-22T05:41:17;61.41;46.41;69.59;;